KTLH/TLH METAR and TAF weather

Enter ICAO airport designator
Station Type Date Time Source
KTLH METAR 2018/12/10 09:43 UTC NOAA

KTLH 100943Z AUTO 33009KT 10SM SCT021 OVC028 07/04 A3005 RMK AO2 T00720044


Station Type Date Time Source
KTLH Decoded METAR 2018/12/10 09:43 UTC NOAA

TALLAHASSEE REGIONAL AIRPORT , FL, United States (KTLH) 30-24N 84-21W 16M
Dec 10, 2018 - 04:43 AM EST / 2018.12.10 0943 UTC
Wind: from the NNW (330 degrees) at 10 MPH (9 KT):0
Visibility: 10 mile(s):0
Sky conditions: overcast
Temperature: 45.0 F (7.2 C)
Dew Point: 39.9 F (4.4 C)
Relative Humidity: 82%
Pressure (altimeter): 30.05 in. Hg (1017 hPa)
ob: KTLH 100943Z AUTO 33009KT 10SM SCT021 OVC028 07/04 A3005 RMK AO2 T00720044
cycle: 9

Station Type Date Time Source
KTLH TAF 2018/12/10 08:09 UTC NOAA

TAF
AMD KTLH 100807Z 1008/1106 31008KT P6SM BKN018
TEMPO 1008/1012 OVC040


Example: see airport list